sensor_id;sensor_type;location;lat;lon;timestamp;P1;P2;P0
46591;PMS6003;32314;48.748;9.656;2022-12-26T00:00:06;8.00;6.25;3.50
46591;PMS6003;32314;48.748;9.656;2022-12-26T00:02:53;3.33;3.00;3.00
46591;PMS6003;32314;48.748;9.656;2022-12-26T00:05:39;1.00;1.00;1.00
46591;PMS6003;32314;48.748;9.656;2022-12-26T00:08:25;6.00;3.00;3.00
46591;PMS6003;32314;48.748;9.656;2022-12-26T00:11:10;1.00;1.00;0.00
46591;PMS6003;32314;48.748;9.656;2022-12-26T00:14:10;1.00;1.00;1.00
46591;PMS6003;32314;48.748;9.656;2022-12-26T00:16:57;4.00;1.00;1.00
46591;PMS6003;32314;48.748;9.656;2022-12-26T00:19:43;3.00;3.00;2.00
46591;PMS6003;32314;48.748;9.656;2022-12-26T00:22:29;4.00;2.33;1.00
46591;PMS6003;32314;48.748;9.656;2022-12-26T00:25:15;3.00;2.33;1.00
46591;PMS6003;32314;48.748;9.656;2022-12-26T00:28:01;6.00;4.00;3.00
46591;PMS6003;32314;48.748;9.656;2022-12-26T00:30:47;5.00;3.67;1.00
46591;PMS6003;32314;48.748;9.656;2022-12-26T00:33:34;4.00;4.00;3.67
46591;PMS6003;32314;48.748;9.656;2022-12-26T00:36:24;4.00;4.00;3.00
46591;PMS6003;32314;48.748;9.656;2022-12-26T00:39:12;4.00;4.00;3.00
46591;PMS6003;32314;48.748;9.656;2022-12-26T00:41:58;4.33;3.00;1.00
46591;PMS6003;32314;48.748;9.656;2022-12-26T00:44:44;1.67;1.67;1.00
46591;PMS6003;32314;48.748;9.656;2022-12-26T00:47:30;1.67;1.67;1.00
46591;PMS6003;32314;48.748;9.656;2022-12-26T00:50:16;1.67;1.67;1.00
46591;PMS6003;32314;48.748;9.656;2022-12-26T00:53:02;3.33;3.33;2.33
46591;PMS6003;32314;48.748;9.656;2022-12-26T00:55:48;3.67;3.67;2.33
46591;PMS6003;32314;48.748;9.656;2022-12-26T00:58:34;4.00;4.00;3.00
46591;PMS6003;32314;48.748;9.656;2022-12-26T01:01:21;11.33;6.67;4.00
46591;PMS6003;32314;48.748;9.656;2022-12-26T01:04:07;5.33;5.33;4.00
46591;PMS6003;32314;48.748;9.656;2022-12-26T01:06:53;10.00;4.67;3.00
46591;PMS6003;32314;48.748;9.656;2022-12-26T01:09:38;4.00;4.00;4.00
46591;PMS6003;32314;48.748;9.656;2022-12-26T01:12:24;15.67;11.33;8.33
46591;PMS6003;32314;48.748;9.656;2022-12-26T01:15:11;24.67;22.67;15.67
46591;PMS6003;32314;48.748;9.656;2022-12-26T01:17:58;4.00;4.00;4.00
46591;PMS6003;32314;48.748;9.656;2022-12-26T01:20:44;9.00;6.67;4.00
46591;PMS6003;32314;48.748;9.656;2022-12-26T01:23:30;3.67;3.67;3.00
46591;PMS6003;32314;48.748;9.656;2022-12-26T01:26:16;3.00;3.00;3.00
46591;PMS6003;32314;48.748;9.656;2022-12-26T01:29:01;5.33;5.33;4.00
46591;PMS6003;32314;48.748;9.656;2022-12-26T01:31:47;4.00;4.00;3.00
46591;PMS6003;32314;48.748;9.656;2022-12-26T01:34:33;3.00;3.00;3.00
46591;PMS6003;32314;48.748;9.656;2022-12-26T01:37:19;4.00;4.00;3.67
46591;PMS6003;32314;48.748;9.656;2022-12-26T01:40:04;4.00;4.00;3.00
46591;PMS6003;32314;48.748;9.656;2022-12-26T01:42:51;7.67;7.00;6.00
46591;PMS6003;32314;48.748;9.656;2022-12-26T01:45:37;4.00;4.00;3.00
46591;PMS6003;32314;48.748;9.656;2022-12-26T01:48:24;7.67;6.33;5.33
46591;PMS6003;32314;48.748;9.656;2022-12-26T01:51:18;8.33;6.00;5.33
46591;PMS6003;32314;48.748;9.656;2022-12-26T01:54:07;6.00;4.00;3.00
46591;PMS6003;32314;48.748;9.656;2022-12-26T01:56:54;3.00;3.00;2.33
46591;PMS6003;32314;48.748;9.656;2022-12-26T01:59:40;4.00;4.00;3.00
46591;PMS6003;32314;48.748;9.656;2022-12-26T02:02:27;6.00;6.00;4.00
46591;PMS6003;32314;48.748;9.656;2022-12-26T02:05:14;7.00;7.00;6.00
46591;PMS6003;32314;48.748;9.656;2022-12-26T02:08:20;10.67;5.33;4.00
46591;PMS6003;32314;48.748;9.656;2022-12-26T02:11:20;6.33;6.33;4.67
46591;PMS6003;32314;48.748;9.656;2022-12-26T02:14:08;4.00;4.00;4.00
46591;PMS6003;32314;48.748;9.656;2022-12-26T02:16:54;8.33;6.00;4.00
46591;PMS6003;32314;48.748;9.656;2022-12-26T02:26:09;5.00;4.00;4.00
46591;PMS6003;32314;48.748;9.656;2022-12-26T02:29:35;11.33;7.00;6.00
46591;PMS6003;32314;48.748;9.656;2022-12-26T02:41:27;5.33;5.33;4.67
46591;PMS6003;32314;48.748;9.656;2022-12-26T02:44:21;3.00;3.00;1.00
46591;PMS6003;32314;48.748;9.656;2022-12-26T02:47:38;4.00;4.00;4.00
46591;PMS6003;32314;48.748;9.656;2022-12-26T02:50:48;6.00;3.67;3.33
46591;PMS6003;32314;48.748;9.656;2022-12-26T02:54:08;3.00;3.00;3.00
46591;PMS6003;32314;48.748;9.656;2022-12-26T02:57:21;9.67;7.00;4.00
46591;PMS6003;32314;48.748;9.656;2022-12-26T03:00:27;1.00;1.00;1.00
46591;PMS6003;32314;48.748;9.656;2022-12-26T03:03:32;4.67;3.00;3.00
46591;PMS6003;32314;48.748;9.656;2022-12-26T03:06:39;4.00;4.00;2.33
46591;PMS6003;32314;48.748;9.656;2022-12-26T03:09:44;6.00;3.33;3.00
46591;PMS6003;32314;48.748;9.656;2022-12-26T03:12:54;1.67;1.67;0.67
46591;PMS6003;32314;48.748;9.656;2022-12-26T03:16:02;3.67;3.00;1.67
46591;PMS6003;32314;48.748;9.656;2022-12-26T03:19:09;6.00;6.00;4.00
46591;PMS6003;32314;48.748;9.656;2022-12-26T03:21:56;3.00;3.00;1.00
46591;PMS6003;32314;48.748;9.656;2022-12-26T03:24:43;1.00;0.00;0.00
46591;PMS6003;32314;48.748;9.656;2022-12-26T03:27:49;6.00;3.00;3.00
46591;PMS6003;32314;48.748;9.656;2022-12-26T03:30:35;1.00;1.00;1.00
46591;PMS6003;32314;48.748;9.656;2022-12-26T03:33:34;6.00;3.00;3.00
46591;PMS6003;32314;48.748;9.656;2022-12-26T03:50:08;8.33;6.67;5.33
46591;PMS6003;32314;48.748;9.656;2022-12-26T03:53:23;8.33;5.33;4.00
46591;PMS6003;32314;48.748;9.656;2022-12-26T03:56:37;10.00;7.67;4.00
46591;PMS6003;32314;48.748;9.656;2022-12-26T03:59:57;4.67;4.67;4.00
46591;PMS6003;32314;48.748;9.656;2022-12-26T04:03:09;10.00;7.00;6.00
46591;PMS6003;32314;48.748;9.656;2022-12-26T04:06:18;8.33;8.33;5.33
46591;PMS6003;32314;48.748;9.656;2022-12-26T04:09:25;7.00;4.00;4.00
46591;PMS6003;32314;48.748;9.656;2022-12-26T04:12:35;7.67;7.67;6.33
46591;PMS6003;32314;48.748;9.656;2022-12-26T04:15:54;6.00;6.00;3.67
46591;PMS6003;32314;48.748;9.656;2022-12-26T04:25:44;3.00;3.00;3.00
46591;PMS6003;32314;48.748;9.656;2022-12-26T04:28:51;3.00;3.00;3.00
46591;PMS6003;32314;48.748;9.656;2022-12-26T04:35:46;4.67;4.67;3.67
46591;PMS6003;32314;48.748;9.656;2022-12-26T04:38:55;5.33;3.00;3.00
46591;PMS6003;32314;48.748;9.656;2022-12-26T04:42:02;6.00;3.00;3.00
46591;PMS6003;32314;48.748;9.656;2022-12-26T04:45:07;1.67;1.67;1.67
46591;PMS6003;32314;48.748;9.656;2022-12-26T04:47:53;3.33;3.33;3.00
46591;PMS6003;32314;48.748;9.656;2022-12-26T04:51:14;11.33;7.67;6.00
46591;PMS6003;32314;48.748;9.656;2022-12-26T04:54:00;10.00;7.00;6.00
46591;PMS6003;32314;48.748;9.656;2022-12-26T04:56:46;4.67;3.00;3.00
46591;PMS6003;32314;48.748;9.656;2022-12-26T04:59:32;6.00;4.00;3.00
46591;PMS6003;32314;48.748;9.656;2022-12-26T05:02:18;15.00;11.33;7.00
46591;PMS6003;32314;48.748;9.656;2022-12-26T05:05:22;20.00;17.00;9.00
46591;PMS6003;32314;48.748;9.656;2022-12-26T05:08:34;15.00;15.00;9.00
46591;PMS6003;32314;48.748;9.656;2022-12-26T05:11:42;20.00;15.00;7.00
46591;PMS6003;32314;48.748;9.656;2022-12-26T05:14:31;7.00;7.00;4.00
46591;PMS6003;32314;48.748;9.656;2022-12-26T05:17:20;4.00;4.00;1.00
46591;PMS6003;32314;48.748;9.656;2022-12-26T05:20:24;3.00;3.00;1.00
46591;PMS6003;32314;48.748;9.656;2022-12-26T05:23:28;1.00;1.00;1.00
46591;PMS6003;32314;48.748;9.656;2022-12-26T05:26:33;6.00;4.00;3.00
46591;PMS6003;32314;48.748;9.656;2022-12-26T05:29:38;1.00;1.00;1.00
46591;PMS6003;32314;48.748;9.656;2022-12-26T05:32:23;3.00;3.00;1.00
46591;PMS6003;32314;48.748;9.656;2022-12-26T05:35:28;0.33;0.33;0.00
46591;PMS6003;32314;48.748;9.656;2022-12-26T05:38:14;0.00;0.00;0.00
46591;PMS6003;32314;48.748;9.656;2022-12-26T05:40:59;2.00;1.00;1.00
46591;PMS6003;32314;48.748;9.656;2022-12-26T05:43:45;7.00;3.00;2.33
46591;PMS6003;32314;48.748;9.656;2022-12-26T05:46:32;1.00;1.00;1.00
46591;PMS6003;32314;48.748;9.656;2022-12-26T05:49:18;26.67;20.00;13.00
46591;PMS6003;32314;48.748;9.656;2022-12-26T05:52:04;15.00;15.00;10.00
46591;PMS6003;32314;48.748;9.656;2022-12-26T05:54:50;19.67;18.00;7.67
46591;PMS6003;32314;48.748;9.656;2022-12-26T05:57:35;13.00;13.00;9.33
46591;PMS6003;32314;48.748;9.656;2022-12-26T06:00:21;12.33;12.00;9.00
46591;PMS6003;32314;48.748;9.656;2022-12-26T06:03:07;31.67;29.33;16.67
46591;PMS6003;32314;48.748;9.656;2022-12-26T06:05:55;64.67;47.67;26.67
46591;PMS6003;32314;48.748;9.656;2022-12-26T06:08:42;11.33;9.67;6.00
46591;PMS6003;32314;48.748;9.656;2022-12-26T06:11:27;11.00;9.00;6.67
46591;PMS6003;32314;48.748;9.656;2022-12-26T06:14:13;6.00;6.00;4.00
46591;PMS6003;32314;48.748;9.656;2022-12-26T06:16:59;12.67;10.67;9.00
46591;PMS6003;32314;48.748;9.656;2022-12-26T06:19:45;11.33;9.33;6.33
46591;PMS6003;32314;48.748;9.656;2022-12-26T06:22:31;9.33;9.00;6.00
46591;PMS6003;32314;48.748;9.656;2022-12-26T06:25:17;11.33;6.00;6.00
46591;PMS6003;32314;48.748;9.656;2022-12-26T06:28:03;9.33;9.33;6.67
46591;PMS6003;32314;48.748;9.656;2022-12-26T06:30:49;32.33;24.67;15.00
46591;PMS6003;32314;48.748;9.656;2022-12-26T06:33:35;27.33;22.00;12.00
46591;PMS6003;32314;48.748;9.656;2022-12-26T06:36:22;6.00;1.00;0.00
46591;PMS6003;32314;48.748;9.656;2022-12-26T06:39:09;17.00;12.67;9.00
46591;PMS6003;32314;48.748;9.656;2022-12-26T06:41:54;22.67;10.67;7.00
46591;PMS6003;32314;48.748;9.656;2022-12-26T06:44:40;5.67;4.00;3.00
46591;PMS6003;32314;48.748;9.656;2022-12-26T06:47:27;12.33;9.67;6.67
46591;PMS6003;32314;48.748;9.656;2022-12-26T06:50:13;7.67;7.67;6.33
46591;PMS6003;32314;48.748;9.656;2022-12-26T06:52:59;6.67;6.67;5.33
46591;PMS6003;32314;48.748;9.656;2022-12-26T06:55:46;6.67;6.00;4.00
46591;PMS6003;32314;48.748;9.656;2022-12-26T06:58:33;4.00;1.67;1.00
46591;PMS6003;32314;48.748;9.656;2022-12-26T07:01:19;3.00;3.00;3.00
46591;PMS6003;32314;48.748;9.656;2022-12-26T07:04:05;7.33;6.00;3.33
46591;PMS6003;32314;48.748;9.656;2022-12-26T07:06:50;3.00;3.00;1.67
46591;PMS6003;32314;48.748;9.656;2022-12-26T07:09:36;6.00;3.00;3.00
46591;PMS6003;32314;48.748;9.656;2022-12-26T07:12:22;0.67;0.67;0.33
46591;PMS6003;32314;48.748;9.656;2022-12-26T07:15:08;1.00;1.00;0.00
46591;PMS6003;32314;48.748;9.656;2022-12-26T07:17:54;4.00;1.00;1.00
46591;PMS6003;32314;48.748;9.656;2022-12-26T07:20:40;3.00;3.00;2.33
46591;PMS6003;32314;48.748;9.656;2022-12-26T07:23:26;2.33;2.33;2.33
46591;PMS6003;32314;48.748;9.656;2022-12-26T07:26:12;1.00;1.00;1.00
46591;PMS6003;32314;48.748;9.656;2022-12-26T07:28:58;3.33;3.33;3.00
46591;PMS6003;32314;48.748;9.656;2022-12-26T07:31:44;1.00;1.00;0.75
46591;PMS6003;32314;48.748;9.656;2022-12-26T07:34:30;0.67;0.67;0.67
46591;PMS6003;32314;48.748;9.656;2022-12-26T07:37:15;1.00;1.00;1.00
46591;PMS6003;32314;48.748;9.656;2022-12-26T07:40:01;3.00;3.00;3.00
46591;PMS6003;32314;48.748;9.656;2022-12-26T07:42:48;1.00;1.00;1.00
46591;PMS6003;32314;48.748;9.656;2022-12-26T07:45:37;1.00;0.33;0.33
46591;PMS6003;32314;48.748;9.656;2022-12-26T07:48:23;1.00;1.00;1.00
46591;PMS6003;32314;48.748;9.656;2022-12-26T07:51:09;3.00;3.00;1.00
46591;PMS6003;32314;48.748;9.656;2022-12-26T07:53:55;1.00;1.00;1.00
46591;PMS6003;32314;48.748;9.656;2022-12-26T07:56:41;1.00;1.00;1.00
46591;PMS6003;32314;48.748;9.656;2022-12-26T07:59:26;4.67;3.33;3.00
46591;PMS6003;32314;48.748;9.656;2022-12-26T08:02:15;1.50;1.50;1.00
46591;PMS6003;32314;48.748;9.656;2022-12-26T08:05:00;2.00;1.00;1.00
46591;PMS6003;32314;48.748;9.656;2022-12-26T08:07:47;7.00;7.00;4.00
46591;PMS6003;32314;48.748;9.656;2022-12-26T08:10:33;4.00;4.00;3.00
46591;PMS6003;32314;48.748;9.656;2022-12-26T08:13:19;0.75;0.75;0.75
46591;PMS6003;32314;48.748;9.656;2022-12-26T08:16:06;4.67;4.67;3.33
46591;PMS6003;32314;48.748;9.656;2022-12-26T08:18:52;6.00;3.33;1.67
46591;PMS6003;32314;48.748;9.656;2022-12-26T08:21:38;7.00;7.00;6.00
46591;PMS6003;32314;48.748;9.656;2022-12-26T08:24:24;7.00;7.00;4.00
46591;PMS6003;32314;48.748;9.656;2022-12-26T08:27:10;6.00;3.00;3.00
46591;PMS6003;32314;48.748;9.656;2022-12-26T08:29:56;6.00;3.50;3.00
46591;PMS6003;32314;48.748;9.656;2022-12-26T08:32:42;15.00;12.33;7.67
46591;PMS6003;32314;48.748;9.656;2022-12-26T08:35:28;28.00;21.00;15.00
46591;PMS6003;32314;48.748;9.656;2022-12-26T08:38:14;11.33;9.00;9.00
46591;PMS6003;32314;48.748;9.656;2022-12-26T08:41:00;7.67;6.33;6.00
46591;PMS6003;32314;48.748;9.656;2022-12-26T08:43:46;12.67;10.00;9.33
46591;PMS6003;32314;48.748;9.656;2022-12-26T08:46:34;9.00;8.33;6.00
46591;PMS6003;32314;48.748;9.656;2022-12-26T08:49:19;9.00;9.00;6.00
46591;PMS6003;32314;48.748;9.656;2022-12-26T08:52:07;7.00;7.00;4.00
46591;PMS6003;32314;48.748;9.656;2022-12-26T08:54:53;22.67;17.33;11.33
46591;PMS6003;32314;48.748;9.656;2022-12-26T08:57:38;8.33;6.33;3.00
46591;PMS6003;32314;48.748;9.656;2022-12-26T09:00:24;6.25;6.25;5.50
46591;PMS6003;32314;48.748;9.656;2022-12-26T09:03:10;7.00;4.67;4.67
46591;PMS6003;32314;48.748;9.656;2022-12-26T09:05:59;12.00;9.67;6.33
46591;PMS6003;32314;48.748;9.656;2022-12-26T09:08:45;15.00;15.00;12.00
46591;PMS6003;32314;48.748;9.656;2022-12-26T09:11:31;28.33;18.00;11.67
46591;PMS6003;32314;48.748;9.656;2022-12-26T09:14:17;15.33;15.00;10.67
46591;PMS6003;32314;48.748;9.656;2022-12-26T09:17:06;6.33;6.33;4.67
46591;PMS6003;32314;48.748;9.656;2022-12-26T09:19:51;15.33;15.33;10.67
46591;PMS6003;32314;48.748;9.656;2022-12-26T09:22:37;18.33;12.67;8.33
46591;PMS6003;32314;48.748;9.656;2022-12-26T09:25:35;24.67;21.00;15.00
46591;PMS6003;32314;48.748;9.656;2022-12-26T09:28:21;13.33;13.33;8.33
46591;PMS6003;32314;48.748;9.656;2022-12-26T09:31:09;13.00;13.00;7.00
46591;PMS6003;32314;48.748;9.656;2022-12-26T09:33:56;10.00;7.67;4.00
46591;PMS6003;32314;48.748;9.656;2022-12-26T09:36:43;14.67;10.00;7.00
46591;PMS6003;32314;48.748;9.656;2022-12-26T09:39:29;13.00;13.00;10.00
46591;PMS6003;32314;48.748;9.656;2022-12-26T09:45:21;18.33;16.67;12.00
46591;PMS6003;32314;48.748;9.656;2022-12-26T09:48:17;28.33;26.67;20.00
46591;PMS6003;32314;48.748;9.656;2022-12-26T09:51:06;21.33;18.00;12.67
46591;PMS6003;32314;48.748;9.656;2022-12-26T09:53:54;14.33;14.33;11.33
46591;PMS6003;32314;48.748;9.656;2022-12-26T09:56:40;25.33;25.33;16.00
46591;PMS6003;32314;48.748;9.656;2022-12-26T09:59:27;16.00;16.00;13.00
46591;PMS6003;32314;48.748;9.656;2022-12-26T10:02:17;11.33;11.33;7.33
46591;PMS6003;32314;48.748;9.656;2022-12-26T10:05:05;27.00;25.67;19.33
46591;PMS6003;32314;48.748;9.656;2022-12-26T10:07:54;20.67;18.67;12.00
46591;PMS6003;32314;48.748;9.656;2022-12-26T10:10:46;19.00;17.00;12.00
46591;PMS6003;32314;48.748;9.656;2022-12-26T10:14:06;10.00;9.00;7.67
46591;PMS6003;32314;48.748;9.656;2022-12-26T10:23:12;6.50;6.50;6.00
46591;PMS6003;32314;48.748;9.656;2022-12-26T10:26:08;7.00;5.50;4.00
46591;PMS6003;32314;48.748;9.656;2022-12-26T10:31:58;5.25;3.00;1.00
46591;PMS6003;32314;48.748;9.656;2022-12-26T10:34:47;8.33;6.67;4.67
46591;PMS6003;32314;48.748;9.656;2022-12-26T10:40:27;6.67;6.33;6.00
46591;PMS6003;32314;48.748;9.656;2022-12-26T10:43:29;3.00;3.00;1.50
46591;PMS6003;32314;48.748;9.656;2022-12-26T10:49:15;6.00;6.00;2.33
46591;PMS6003;32314;48.748;9.656;2022-12-26T10:52:03;8.75;8.75;7.00
46591;PMS6003;32314;48.748;9.656;2022-12-26T10:54:51;4.50;4.50;4.50
46591;PMS6003;32314;48.748;9.656;2022-12-26T10:57:39;10.00;10.00;7.00
46591;PMS6003;32314;48.748;9.656;2022-12-26T11:00:27;17.00;13.33;10.33
46591;PMS6003;32314;48.748;9.656;2022-12-26T11:03:14;12.33;12.33;10.00
46591;PMS6003;32314;48.748;9.656;2022-12-26T11:06:03;26.33;26.33;20.67
46591;PMS6003;32314;48.748;9.656;2022-12-26T11:08:49;34.33;34.00;22.33
46591;PMS6003;32314;48.748;9.656;2022-12-26T11:11:35;23.00;23.00;19.00
46591;PMS6003;32314;48.748;9.656;2022-12-26T11:14:32;29.00;25.67;19.00
46591;PMS6003;32314;48.748;9.656;2022-12-26T11:17:26;16.33;16.33;10.67
46591;PMS6003;32314;48.748;9.656;2022-12-26T11:23:12;22.33;22.33;16.00
46591;PMS6003;32314;48.748;9.656;2022-12-26T11:26:17;6.00;6.00;5.00
46591;PMS6003;32314;48.748;9.656;2022-12-26T11:29:17;13.00;13.00;11.00
46591;PMS6003;32314;48.748;9.656;2022-12-26T11:32:05;12.00;10.33;9.33
46591;PMS6003;32314;48.748;9.656;2022-12-26T11:34:50;4.33;4.33;4.00
46591;PMS6003;32314;48.748;9.656;2022-12-26T11:37:39;18.33;15.00;10.33
46591;PMS6003;32314;48.748;9.656;2022-12-26T11:40:32;13.33;12.33;10.00
46591;PMS6003;32314;48.748;9.656;2022-12-26T11:43:21;12.67;12.67;10.00
46591;PMS6003;32314;48.748;9.656;2022-12-26T11:46:08;14.33;12.00;10.00
46591;PMS6003;32314;48.748;9.656;2022-12-26T11:48:54;13.33;13.33;10.00
46591;PMS6003;32314;48.748;9.656;2022-12-26T11:51:41;15.67;15.67;11.00
46591;PMS6003;32314;48.748;9.656;2022-12-26T11:54:29;7.00;7.00;5.33
46591;PMS6003;32314;48.748;9.656;2022-12-26T11:57:22;9.25;7.00;4.50
46591;PMS6003;32314;48.748;9.656;2022-12-26T12:00:16;10.75;10.75;7.00
46591;PMS6003;32314;48.748;9.656;2022-12-26T12:03:09;5.50;5.50;4.50
46591;PMS6003;32314;48.748;9.656;2022-12-26T12:23:55;9.33;9.00;7.00
46591;PMS6003;32314;48.748;9.656;2022-12-26T12:36:44;15.00;15.00;10.00
46591;PMS6003;32314;48.748;9.656;2022-12-26T12:58:40;16.00;16.00;9.33
46591;PMS6003;32314;48.748;9.656;2022-12-26T13:01:38;13.67;13.67;9.67
46591;PMS6003;32314;48.748;9.656;2022-12-26T13:04:28;13.67;12.33;10.00
46591;PMS6003;32314;48.748;9.656;2022-12-26T13:10:24;14.33;12.00;10.33
46591;PMS6003;32314;48.748;9.656;2022-12-26T13:13:17;7.25;7.25;5.00
46591;PMS6003;32314;48.748;9.656;2022-12-26T13:16:11;3.50;3.50;3.25
46591;PMS6003;32314;48.748;9.656;2022-12-26T13:19:04;3.25;3.25;2.75
46591;PMS6003;32314;48.748;9.656;2022-12-26T13:21:52;2.75;2.75;2.00
46591;PMS6003;32314;48.748;9.656;2022-12-26T13:24:44;3.00;3.00;3.00
46591;PMS6003;32314;48.748;9.656;2022-12-26T13:27:35;2.00;2.00;2.00
46591;PMS6003;32314;48.748;9.656;2022-12-26T13:30:21;2.00;2.00;2.00
46591;PMS6003;32314;48.748;9.656;2022-12-26T13:33:11;1.00;1.00;1.00
46591;PMS6003;32314;48.748;9.656;2022-12-26T13:36:00;0.00;0.00;0.00
46591;PMS6003;32314;48.748;9.656;2022-12-26T13:41:47;0.50;0.50;0.00
46591;PMS6003;32314;48.748;9.656;2022-12-26T13:44:54;1.00;1.00;1.00
46591;PMS6003;32314;48.748;9.656;2022-12-26T13:47:40;1.00;1.00;1.00
46591;PMS6003;32314;48.748;9.656;2022-12-26T13:53:34;9.75;8.25;8.00
46591;PMS6003;32314;48.748;9.656;2022-12-26T13:59:31;2.25;1.75;1.25
46591;PMS6003;32314;48.748;9.656;2022-12-26T14:08:42;2.00;2.00;1.75
46591;PMS6003;32314;48.748;9.656;2022-12-26T14:20:39;1.00;1.00;1.00
46591;PMS6003;32314;48.748;9.656;2022-12-26T14:23:46;1.75;0.75;0.00
46591;PMS6003;32314;48.748;9.656;2022-12-26T14:26:52;2.75;2.75;2.00
46591;PMS6003;32314;48.748;9.656;2022-12-26T14:36:33;3.00;3.00;3.00
46591;PMS6003;32314;48.748;9.656;2022-12-26T14:45:36;2.75;2.75;2.25
46591;PMS6003;32314;48.748;9.656;2022-12-26T14:48:37;5.50;5.50;4.00
46591;PMS6003;32314;48.748;9.656;2022-12-26T14:51:31;3.00;3.00;2.75
46591;PMS6003;32314;48.748;9.656;2022-12-26T15:00:28;4.00;4.00;4.00
46591;PMS6003;32314;48.748;9.656;2022-12-26T15:12:38;2.25;2.00;2.00
46591;PMS6003;32314;48.748;9.656;2022-12-26T15:15:49;3.00;3.00;3.00
46591;PMS6003;32314;48.748;9.656;2022-12-26T15:37:21;24.67;22.67;19.00
46591;PMS6003;32314;48.748;9.656;2022-12-26T15:40:22;24.00;24.00;20.67
46591;PMS6003;32314;48.748;9.656;2022-12-26T15:45:59;4.00;1.00;0.50
46591;PMS6003;32314;48.748;9.656;2022-12-26T15:57:39;1.00;1.00;1.00
46591;PMS6003;32314;48.748;9.656;2022-12-26T16:00:49;11.33;11.00;6.00
46591;PMS6003;32314;48.748;9.656;2022-12-26T16:03:55;9.50;9.50;5.75
46591;PMS6003;32314;48.748;9.656;2022-12-26T16:09:53;1.25;1.25;1.00
46591;PMS6003;32314;48.748;9.656;2022-12-26T16:12:39;34.00;28.67;21.33
46591;PMS6003;32314;48.748;9.656;2022-12-26T16:15:28;5.00;5.00;4.00
46591;PMS6003;32314;48.748;9.656;2022-12-26T16:18:16;8.00;8.00;6.67
46591;PMS6003;32314;48.748;9.656;2022-12-26T16:21:04;7.25;5.00;4.00
46591;PMS6003;32314;48.748;9.656;2022-12-26T16:24:10;5.00;5.00;5.00
46591;PMS6003;32314;48.748;9.656;2022-12-26T16:26:58;9.00;8.00;6.00
46591;PMS6003;32314;48.748;9.656;2022-12-26T16:29:47;2.75;2.75;2.75
46591;PMS6003;32314;48.748;9.656;2022-12-26T16:32:35;6.00;6.00;5.50
46591;PMS6003;32314;48.748;9.656;2022-12-26T16:35:27;3.75;3.50;2.50
46591;PMS6003;32314;48.748;9.656;2022-12-26T16:38:18;10.00;9.00;8.00
46591;PMS6003;32314;48.748;9.656;2022-12-26T16:44:26;12.00;11.00;9.67
46591;PMS6003;32314;48.748;9.656;2022-12-26T16:47:14;3.67;3.67;3.67
46591;PMS6003;32314;48.748;9.656;2022-12-26T16:50:02;3.25;1.00;0.75
46591;PMS6003;32314;48.748;9.656;2022-12-26T16:52:49;3.25;3.00;3.00
46591;PMS6003;32314;48.748;9.656;2022-12-26T16:56:28;3.75;3.75;3.00
46591;PMS6003;32314;48.748;9.656;2022-12-26T16:59:21;10.00;10.00;9.00
46591;PMS6003;32314;48.748;9.656;2022-12-26T17:02:19;10.67;10.00;6.00
46591;PMS6003;32314;48.748;9.656;2022-12-26T17:05:14;8.67;5.33;3.33
46591;PMS6003;32314;48.748;9.656;2022-12-26T17:08:11;26.00;25.00;19.33
46591;PMS6003;32314;48.748;9.656;2022-12-26T17:10:58;20.67;20.67;16.33
46591;PMS6003;32314;48.748;9.656;2022-12-26T17:13:49;7.00;7.00;5.00
46591;PMS6003;32314;48.748;9.656;2022-12-26T17:16:37;9.00;7.33;6.00
46591;PMS6003;32314;48.748;9.656;2022-12-26T17:19:25;7.67;5.67;3.00
46591;PMS6003;32314;48.748;9.656;2022-12-26T17:31:02;5.00;5.00;4.00
46591;PMS6003;32314;48.748;9.656;2022-12-26T17:33:57;4.00;4.00;3.00
46591;PMS6003;32314;48.748;9.656;2022-12-26T17:36:43;1.00;1.00;1.00
46591;PMS6003;32314;48.748;9.656;2022-12-26T17:39:29;12.33;12.33;9.33
46591;PMS6003;32314;48.748;9.656;2022-12-26T17:42:15;4.00;4.00;4.00
46591;PMS6003;32314;48.748;9.656;2022-12-26T17:45:01;3.33;1.00;0.00
46591;PMS6003;32314;48.748;9.656;2022-12-26T17:47:50;7.67;5.00;4.00
46591;PMS6003;32314;48.748;9.656;2022-12-26T17:50:37;2.33;2.33;1.00
46591;PMS6003;32314;48.748;9.656;2022-12-26T17:53:27;2.33;1.00;1.00
46591;PMS6003;32314;48.748;9.656;2022-12-26T17:56:17;0.67;0.67;0.67
46591;PMS6003;32314;48.748;9.656;2022-12-26T17:59:12;0.33;0.33;0.00
46591;PMS6003;32314;48.748;9.656;2022-12-26T18:01:58;0.67;0.67;0.00
46591;PMS6003;32314;48.748;9.656;2022-12-26T18:04:45;1.00;1.00;1.00
46591;PMS6003;32314;48.748;9.656;2022-12-26T18:07:31;0.25;0.25;0.00
46591;PMS6003;32314;48.748;9.656;2022-12-26T18:10:21;1.00;1.00;1.00
46591;PMS6003;32314;48.748;9.656;2022-12-26T18:15:46;0.25;0.25;0.00
46591;PMS6003;32314;48.748;9.656;2022-12-26T18:18:36;0.75;0.75;0.25
46591;PMS6003;32314;48.748;9.656;2022-12-26T18:21:51;0.00;0.00;0.00
46591;PMS6003;32314;48.748;9.656;2022-12-26T18:24:37;0.00;0.00;0.00
46591;PMS6003;32314;48.748;9.656;2022-12-26T18:27:25;0.00;0.00;0.00
46591;PMS6003;32314;48.748;9.656;2022-12-26T18:30:15;2.33;2.33;2.33
46591;PMS6003;32314;48.748;9.656;2022-12-26T18:33:02;0.00;0.00;0.00
46591;PMS6003;32314;48.748;9.656;2022-12-26T18:35:48;2.00;0.00;0.00
46591;PMS6003;32314;48.748;9.656;2022-12-26T18:38:33;32.00;27.67;18.00
46591;PMS6003;32314;48.748;9.656;2022-12-26T18:41:19;17.67;17.67;12.00
46591;PMS6003;32314;48.748;9.656;2022-12-26T18:44:05;12.33;12.33;9.67
46591;PMS6003;32314;48.748;9.656;2022-12-26T18:46:51;8.00;8.00;4.00
46591;PMS6003;32314;48.748;9.656;2022-12-26T18:49:37;4.33;4.33;4.33
46591;PMS6003;32314;48.748;9.656;2022-12-26T18:52:24;7.33;7.33;5.33
46591;PMS6003;32314;48.748;9.656;2022-12-26T18:55:09;3.00;3.00;3.00
46591;PMS6003;32314;48.748;9.656;2022-12-26T18:57:55;1.00;1.00;1.00
46591;PMS6003;32314;48.748;9.656;2022-12-26T19:00:41;2.67;2.67;2.00
46591;PMS6003;32314;48.748;9.656;2022-12-26T19:03:27;7.67;5.67;5.00
46591;PMS6003;32314;48.748;9.656;2022-12-26T19:06:24;8.67;6.67;5.00
46591;PMS6003;32314;48.748;9.656;2022-12-26T19:09:11;8.00;8.00;8.00
46591;PMS6003;32314;48.748;9.656;2022-12-26T19:11:58;0.67;0.67;0.33
46591;PMS6003;32314;48.748;9.656;2022-12-26T19:14:44;0.00;0.00;0.00
46591;PMS6003;32314;48.748;9.656;2022-12-26T19:17:30;4.67;4.67;4.00
46591;PMS6003;32314;48.748;9.656;2022-12-26T19:20:17;5.33;5.33;5.00
46591;PMS6003;32314;48.748;9.656;2022-12-26T19:23:04;2.00;2.00;2.00
46591;PMS6003;32314;48.748;9.656;2022-12-26T19:25:50;0.00;0.00;0.00
46591;PMS6003;32314;48.748;9.656;2022-12-26T19:28:36;0.00;0.00;0.00
46591;PMS6003;32314;48.748;9.656;2022-12-26T19:31:22;0.00;0.00;0.00
46591;PMS6003;32314;48.748;9.656;2022-12-26T19:34:08;0.00;0.00;0.00
46591;PMS6003;32314;48.748;9.656;2022-12-26T19:36:54;3.00;0.00;0.00
46591;PMS6003;32314;48.748;9.656;2022-12-26T19:39:40;1.00;1.00;1.00
46591;PMS6003;32314;48.748;9.656;2022-12-26T19:42:26;0.00;0.00;0.00
46591;PMS6003;32314;48.748;9.656;2022-12-26T19:45:12;0.00;0.00;0.00
46591;PMS6003;32314;48.748;9.656;2022-12-26T19:47:58;0.00;0.00;0.00
46591;PMS6003;32314;48.748;9.656;2022-12-26T19:50:44;0.00;0.00;0.00
46591;PMS6003;32314;48.748;9.656;2022-12-26T19:53:29;0.00;0.00;0.00
46591;PMS6003;32314;48.748;9.656;2022-12-26T19:56:17;0.00;0.00;0.00
46591;PMS6003;32314;48.748;9.656;2022-12-26T19:59:08;0.00;0.00;0.00
46591;PMS6003;32314;48.748;9.656;2022-12-26T20:01:53;0.00;0.00;0.00